, UT

(GMT )
Blanding

Weather History for KBDG - August, 2014

Change the Weather History Date:

Friday, August 8, 2014

  Actual Average Record
Temperature  
Mean Temperature 73 °F -  
Max Temperature 88 °F 88 °F 103 °F (1905)
Min Temperature 59 °F 58 °F 46 °F (1939)
Cooling Degree Days 8    
Growing Degree Days 23 (Base 50)    
Moisture  
Dew Point 30 °F    
Average Humidity 24    
Maximum Humidity 47    
Minimum Humidity 10    
Precipitation  
Precipitation 0.00 in - - ()
Sea Level Pressure  
Sea Level Pressure 30.22 in    
Wind  
Wind Speed 7 mph (WNW)    
Max Wind Speed 20 mph    
Max Gust Speed 28 mph    
Visibility 10 miles    
Events      
Averages and records for this station are not official NWS values.
T = Trace of Precipitation, MM = Missing Value Source: NWS Daily Summary

Daily Weather History Graph

Daily Weather History Graph

Search for Another Location

Airport or City:

Trip Planner

Search our weather history database for the weather conditions in past years. The results will help you decide how hot, cold, wet, or windy it might be!

Date:

Astronomy

Aug. 08, 2014 Rise Set
Actual Time 6:27 AM MDT 8:18 PM MDT
Civil Twilight 5:59 AM MDT 8:46 PM MDT
Nautical Twilight 5:24 AM MDT 9:21 PM MDT
Astronomical Twilight 4:48 AM MDT 9:58 PM MDT
Moon 6:32 PM MDT (8/8) 4:04 AM MDT (8/8)
Length of Visible Light 14h 47m
Length of Day
13h 50m
Waxing Gibbous, 94% of the Moon is Illuminated
Aug 8
Waxing Gibbous
Aug 10
Full
Aug 17
Last Quarter
Aug 25
New
Sep 2
First Quarter

Hourly Weather History & Observations

Time (MDT) Temp. Dew Point Humidity Pressure Visibility Wind Dir Wind Speed Gust Speed Precip Events Conditions
12:15 AM 62.2 °F 22.6 °F 22% 30.18 in 10.0 mi NNW 8.1 mph - N/A   Clear
12:35 AM 61.9 °F 23.2 °F 23% 30.18 in 10.0 mi NNW 8.1 mph - N/A   Clear
12:55 AM 61.9 °F 23.4 °F 23% 30.18 in 10.0 mi NNW 8.1 mph - N/A   Clear
1:15 AM 62.1 °F 23.4 °F 23% 30.18 in 10.0 mi NNW 9.2 mph - N/A   Clear
1:35 AM 62.2 °F 23.9 °F 23% 30.18 in 10.0 mi NNW 10.4 mph - N/A   Clear
1:55 AM 62.2 °F 23.9 °F 23% 30.18 in 10.0 mi NNW 9.2 mph - N/A   Clear
2:15 AM 62.2 °F 24.3 °F 23% 30.19 in 10.0 mi ESE 8.1 mph - N/A   Clear
2:35 AM 64.4 °F 23.7 °F 21% 30.19 in 10.0 mi East 3.5 mph - N/A   Clear
2:55 AM 65.1 °F 22.8 °F 20% 30.20 in 10.0 mi East 5.8 mph - N/A   Clear
3:15 AM 63.1 °F 24.4 °F 23% 30.20 in 10.0 mi East 3.5 mph - N/A   Clear
3:35 AM 61.5 °F 27.1 °F 27% 30.21 in 10.0 mi NE 5.8 mph - N/A   Clear
3:55 AM 61.5 °F 30.9 °F 32% 30.21 in 10.0 mi ENE 3.5 mph - N/A   Clear
4:15 AM 60.8 °F 33.1 °F 35% 30.21 in 10.0 mi NE 6.9 mph - N/A   Clear
4:35 AM 59.9 °F 35.4 °F 40% 30.22 in 10.0 mi NE 6.9 mph - N/A   Clear
4:55 AM 60.3 °F 37.4 °F 43% 30.22 in 10.0 mi NNE 5.8 mph - N/A   Clear
5:15 AM 60.3 °F 38.8 °F 45% 30.23 in 10.0 mi NNE 6.9 mph - N/A   Clear
5:35 AM 60.1 °F 39.2 °F 46% 30.23 in 10.0 mi NE 5.8 mph - N/A   Clear
5:55 AM 59.7 °F 39.2 °F 47% 30.23 in 10.0 mi NNE 8.1 mph - N/A   Clear
6:15 AM 60.4 °F 39.2 °F 45% 30.25 in 10.0 mi NNE 4.6 mph - N/A   Clear
6:35 AM 59.9 °F 39.2 °F 46% 30.25 in 10.0 mi NNE 5.8 mph - N/A   Clear
6:55 AM 59.4 °F 39.0 °F 47% 30.25 in 10.0 mi NNE 3.5 mph - N/A   Clear
7:15 AM 59.9 °F 39.4 °F 47% 30.26 in 10.0 mi NNE 5.8 mph - N/A   Clear
7:35 AM 63.5 °F 41.0 °F 44% 30.27 in 10.0 mi Calm Calm - N/A   Clear
7:55 AM 66.2 °F 40.8 °F 40% 30.27 in 10.0 mi Calm Calm - N/A   Clear
8:15 AM 67.8 °F 40.1 °F 36% 30.28 in 10.0 mi Calm Calm - N/A   Clear
8:35 AM 68.7 °F 40.8 °F 36% 30.28 in 10.0 mi Calm Calm - N/A   Clear
8:55 AM 69.1 °F 42.6 °F 38% 30.28 in 10.0 mi Calm Calm - N/A   Clear
9:15 AM 70.0 °F 42.4 °F 37% 30.28 in 10.0 mi Calm Calm - N/A   Clear
9:35 AM 71.1 °F 42.1 °F 35% 30.28 in 10.0 mi Calm Calm - N/A   Clear
9:55 AM 72.3 °F 42.1 °F 34% 30.28 in 10.0 mi SSE 4.6 mph - N/A   Clear
10:35 AM 75.0 °F 42.4 °F 31% 30.28 in 10.0 mi South 5.8 mph - N/A   Clear
10:55 AM 74.8 °F 42.1 °F 31% 30.28 in 10.0 mi SSW 3.5 mph - N/A   Clear
11:15 AM 76.1 °F 42.3 °F 30% 30.28 in 10.0 mi SE 4.6 mph - N/A   Clear
11:35 AM 77.2 °F 41.9 °F 28% 30.28 in 10.0 mi SSW 3.5 mph - N/A   Clear
11:55 AM 78.4 °F 40.6 °F 26% 30.28 in 10.0 mi South 4.6 mph - N/A   Clear
12:15 PM 79.9 °F 39.6 °F 24% 30.27 in 10.0 mi SSE 6.9 mph - N/A   Clear
12:35 PM 81.3 °F 38.5 °F 22% 30.26 in 10.0 mi South 5.8 mph - N/A   Clear
12:55 PM 82.2 °F 36.1 °F 19% 30.26 in 10.0 mi South 6.9 mph 16.1 mph N/A   Clear
1:15 PM 83.7 °F 34.7 °F 17% 30.26 in 10.0 mi SSE 8.1 mph 16.1 mph N/A   Clear
1:35 PM 84.2 °F 33.6 °F 16% 30.25 in 10.0 mi SSW 10.4 mph 20.7 mph N/A   Clear
1:55 PM 84.7 °F 32.2 °F 15% 30.24 in 10.0 mi SW 11.5 mph 16.1 mph N/A   Clear
2:15 PM 85.5 °F 31.6 °F 14% 30.23 in 10.0 mi SE 4.6 mph - N/A   Clear
2:35 PM 86.4 °F 31.6 °F 14% 30.23 in 10.0 mi SSW 12.7 mph 21.9 mph N/A   Scattered Clouds
2:55 PM 86.4 °F 30.4 °F 13% 30.22 in 10.0 mi SSW 8.1 mph 20.7 mph N/A   Clear
3:15 PM 85.8 °F 28.8 °F 13% 30.21 in 10.0 mi SSW 16.1 mph 21.9 mph N/A   Clear
3:35 PM 86.5 °F 27.5 °F 12% 30.20 in 10.0 mi SSW 16.1 mph 27.6 mph N/A   Clear
3:55 PM 87.3 °F 26.2 °F 11% 30.20 in 10.0 mi SW 9.2 mph 24.2 mph N/A   Clear
4:15 PM 87.3 °F 25.0 °F 10% 30.19 in 10.0 mi SW 13.8 mph 18.4 mph N/A   Clear
4:35 PM 87.3 °F 24.1 °F 10% 30.19 in 10.0 mi West 19.6 mph 25.3 mph N/A   Clear
4:55 PM 87.1 °F 24.3 °F 10% 30.19 in 10.0 mi WSW 12.7 mph 23.0 mph N/A   Clear
5:15 PM 86.7 °F 23.0 °F 10% 30.19 in 10.0 mi SW 8.1 mph 17.3 mph N/A   Clear
5:35 PM 86.2 °F 22.8 °F 10% 30.18 in 10.0 mi WSW 8.1 mph 21.9 mph N/A   Clear
5:55 PM 86.2 °F 22.8 °F 10% 30.18 in 10.0 mi WSW 4.6 mph - N/A   Clear
6:15 PM 85.6 °F 23.4 °F 10% 30.18 in 10.0 mi WNW 9.2 mph 13.8 mph N/A   Clear
6:35 PM 85.1 °F 22.6 °F 10% 30.18 in 10.0 mi SW 9.2 mph 16.1 mph N/A   Clear
6:55 PM 84.9 °F 22.3 °F 10% 30.18 in 10.0 mi West 6.9 mph - N/A   Clear
7:15 PM 84.4 °F 21.7 °F 10% 30.18 in 10.0 mi WNW 10.4 mph - N/A   Clear
7:35 PM 83.5 °F 20.5 °F 10% 30.18 in 10.0 mi WNW 9.2 mph - N/A   Clear
7:55 PM 82.4 °F 21.6 °F 11% 30.18 in 10.0 mi West 8.1 mph - N/A   Clear
8:15 PM 80.8 °F 23.7 °F 12% 30.18 in 10.0 mi West 6.9 mph - N/A   Clear
8:35 PM 78.6 °F 23.4 °F 13% 30.18 in 10.0 mi West 4.6 mph - N/A   Clear
8:55 PM 75.0 °F 20.1 °F 13% 30.18 in 10.0 mi NNW 4.6 mph - N/A   Clear
9:15 PM 70.3 °F 19.9 °F 15% 30.19 in 10.0 mi NNW 6.9 mph - N/A   Clear
9:55 PM 66.9 °F 20.7 °F 17% 30.21 in 10.0 mi North 10.4 mph - N/A   Clear
10:15 PM 66.2 °F 22.5 °F 19% 30.21 in 10.0 mi North 9.2 mph - N/A   Clear
10:35 PM 65.7 °F 21.6 °F 19% 30.21 in 10.0 mi North 11.5 mph - N/A   Clear
10:55 PM 65.5 °F 21.2 °F 18% 30.21 in 10.0 mi NNW 10.4 mph - N/A   Clear
11:35 PM 64.9 °F 21.2 °F 19% 30.22 in 10.0 mi NNW 11.5 mph - N/A   Clear
11:55 PM 65.1 °F 21.2 °F 19% 30.22 in 10.0 mi NNW 11.5 mph - N/A   Clear